sensor_id;sensor_type;location;lat;lon;timestamp;temperature;humidity
56538;DHT22;42435;53.292;6.000;2023-11-18T00:01:09;4.90;85.30
56538;DHT22;42435;53.292;6.000;2023-11-18T00:04:04;4.90;85.30
56538;DHT22;42435;53.292;6.000;2023-11-18T00:07:04;4.90;85.50
56538;DHT22;42435;53.292;6.000;2023-11-18T00:09:34;4.90;85.50
56538;DHT22;42435;53.292;6.000;2023-11-18T00:16:02;4.90;85.50
56538;DHT22;42435;53.292;6.000;2023-11-18T00:19:18;4.90;85.50
56538;DHT22;42435;53.292;6.000;2023-11-18T00:22:29;4.90;85.40
56538;DHT22;42435;53.292;6.000;2023-11-18T00:24:57;4.90;85.40
56538;DHT22;42435;53.292;6.000;2023-11-18T00:27:43;4.90;85.40
56538;DHT22;42435;53.292;6.000;2023-11-18T00:30:25;4.90;85.40
56538;DHT22;42435;53.292;6.000;2023-11-18T00:32:55;4.90;85.40
56538;DHT22;42435;53.292;6.000;2023-11-18T00:35:35;4.90;85.40
56538;DHT22;42435;53.292;6.000;2023-11-18T00:38:44;4.90;85.40
56538;DHT22;42435;53.292;6.000;2023-11-18T00:41:19;5.00;85.30
56538;DHT22;42435;53.292;6.000;2023-11-18T00:43:48;4.90;85.30
56538;DHT22;42435;53.292;6.000;2023-11-18T00:46:18;4.90;85.40
56538;DHT22;42435;53.292;6.000;2023-11-18T00:48:45;5.00;85.30
56538;DHT22;42435;53.292;6.000;2023-11-18T00:51:13;4.90;85.40
56538;DHT22;42435;53.292;6.000;2023-11-18T00:53:42;4.90;85.40
56538;DHT22;42435;53.292;6.000;2023-11-18T00:56:17;4.90;85.40
56538;DHT22;42435;53.292;6.000;2023-11-18T00:58:52;4.90;85.30
56538;DHT22;42435;53.292;6.000;2023-11-18T01:01:29;4.90;85.30
56538;DHT22;42435;53.292;6.000;2023-11-18T01:03:58;4.90;85.20
56538;DHT22;42435;53.292;6.000;2023-11-18T01:06:29;4.90;85.20
56538;DHT22;42435;53.292;6.000;2023-11-18T01:08:59;4.90;85.30
56538;DHT22;42435;53.292;6.000;2023-11-18T01:11:30;4.90;85.30
56538;DHT22;42435;53.292;6.000;2023-11-18T01:14:00;4.90;85.30
56538;DHT22;42435;53.292;6.000;2023-11-18T01:16:31;4.90;85.30
56538;DHT22;42435;53.292;6.000;2023-11-18T01:18:57;4.90;85.30
56538;DHT22;42435;53.292;6.000;2023-11-18T01:21:27;4.80;85.40
56538;DHT22;42435;53.292;6.000;2023-11-18T01:23:57;4.90;85.40
56538;DHT22;42435;53.292;6.000;2023-11-18T01:26:29;4.90;85.40
56538;DHT22;42435;53.292;6.000;2023-11-18T01:29:01;4.90;85.40
56538;DHT22;42435;53.292;6.000;2023-11-18T01:31:32;4.80;85.40
56538;DHT22;42435;53.292;6.000;2023-11-18T01:33:59;4.80;85.40
56538;DHT22;42435;53.292;6.000;2023-11-18T01:36:30;4.80;85.40
56538;DHT22;42435;53.292;6.000;2023-11-18T01:38:57;4.90;85.40
56538;DHT22;42435;53.292;6.000;2023-11-18T01:41:36;4.80;85.40
56538;DHT22;42435;53.292;6.000;2023-11-18T01:44:02;4.80;85.40
56538;DHT22;42435;53.292;6.000;2023-11-18T01:46:41;4.80;85.40
56538;DHT22;42435;53.292;6.000;2023-11-18T01:49:14;4.80;85.40
56538;DHT22;42435;53.292;6.000;2023-11-18T01:52:00;4.80;85.30
56538;DHT22;42435;53.292;6.000;2023-11-18T01:54:31;4.80;85.40
56538;DHT22;42435;53.292;6.000;2023-11-18T01:57:05;4.90;85.40
56538;DHT22;42435;53.292;6.000;2023-11-18T01:59:48;4.80;85.40
56538;DHT22;42435;53.292;6.000;2023-11-18T02:02:18;4.80;85.40
56538;DHT22;42435;53.292;6.000;2023-11-18T02:04:47;4.90;85.40
56538;DHT22;42435;53.292;6.000;2023-11-18T02:07:24;4.90;85.40
56538;DHT22;42435;53.292;6.000;2023-11-18T02:09:58;4.90;85.30
56538;DHT22;42435;53.292;6.000;2023-11-18T02:12:53;4.90;85.30
56538;DHT22;42435;53.292;6.000;2023-11-18T02:15:30;4.90;85.40
56538;DHT22;42435;53.292;6.000;2023-11-18T02:18:15;4.90;85.30
56538;DHT22;42435;53.292;6.000;2023-11-18T02:21:06;4.90;85.40
56538;DHT22;42435;53.292;6.000;2023-11-18T02:24:03;4.80;85.40
56538;DHT22;42435;53.292;6.000;2023-11-18T02:26:46;4.90;85.40
56538;DHT22;42435;53.292;6.000;2023-11-18T02:29:15;4.80;85.30
56538;DHT22;42435;53.292;6.000;2023-11-18T02:31:53;4.80;85.20
56538;DHT22;42435;53.292;6.000;2023-11-18T02:34:52;4.80;85.30
56538;DHT22;42435;53.292;6.000;2023-11-18T02:40:45;4.80;85.30
56538;DHT22;42435;53.292;6.000;2023-11-18T02:43:15;4.80;85.20
56538;DHT22;42435;53.292;6.000;2023-11-18T02:45:44;4.80;85.30
56538;DHT22;42435;53.292;6.000;2023-11-18T02:48:29;4.70;85.30
56538;DHT22;42435;53.292;6.000;2023-11-18T02:50:59;4.70;85.30
56538;DHT22;42435;53.292;6.000;2023-11-18T02:53:29;4.70;85.30
56538;DHT22;42435;53.292;6.000;2023-11-18T02:56:06;4.70;85.40
56538;DHT22;42435;53.292;6.000;2023-11-18T02:58:39;4.70;85.40
56538;DHT22;42435;53.292;6.000;2023-11-18T03:01:09;4.70;85.50
56538;DHT22;42435;53.292;6.000;2023-11-18T03:03:35;4.70;85.60
56538;DHT22;42435;53.292;6.000;2023-11-18T03:06:17;4.70;85.60
56538;DHT22;42435;53.292;6.000;2023-11-18T03:08:52;4.80;85.60
56538;DHT22;42435;53.292;6.000;2023-11-18T03:11:21;4.80;85.70
56538;DHT22;42435;53.292;6.000;2023-11-18T03:13:51;4.90;85.70
56538;DHT22;42435;53.292;6.000;2023-11-18T03:16:18;4.90;85.80
56538;DHT22;42435;53.292;6.000;2023-11-18T03:18:51;4.90;85.80
56538;DHT22;42435;53.292;6.000;2023-11-18T03:21:21;4.90;85.80
56538;DHT22;42435;53.292;6.000;2023-11-18T03:23:47;5.00;85.90
56538;DHT22;42435;53.292;6.000;2023-11-18T03:26:16;5.00;85.90
56538;DHT22;42435;53.292;6.000;2023-11-18T03:28:44;5.10;85.90
56538;DHT22;42435;53.292;6.000;2023-11-18T03:31:10;5.20;85.90
56538;DHT22;42435;53.292;6.000;2023-11-18T03:33:44;5.20;85.90
56538;DHT22;42435;53.292;6.000;2023-11-18T03:36:17;5.30;86.00
56538;DHT22;42435;53.292;6.000;2023-11-18T03:38:44;5.30;86.00
56538;DHT22;42435;53.292;6.000;2023-11-18T03:41:13;5.40;86.00
56538;DHT22;42435;53.292;6.000;2023-11-18T03:43:45;5.40;86.10
56538;DHT22;42435;53.292;6.000;2023-11-18T03:46:19;5.40;86.10
56538;DHT22;42435;53.292;6.000;2023-11-18T03:48:55;5.50;86.10
56538;DHT22;42435;53.292;6.000;2023-11-18T03:51:27;5.50;86.10
56538;DHT22;42435;53.292;6.000;2023-11-18T03:53:54;5.50;86.00
56538;DHT22;42435;53.292;6.000;2023-11-18T03:56:28;5.60;86.00
56538;DHT22;42435;53.292;6.000;2023-11-18T03:59:09;5.60;86.00
56538;DHT22;42435;53.292;6.000;2023-11-18T04:01:38;5.60;86.00
56538;DHT22;42435;53.292;6.000;2023-11-18T04:04:05;5.70;85.90
56538;DHT22;42435;53.292;6.000;2023-11-18T04:06:32;5.70;85.90
56538;DHT22;42435;53.292;6.000;2023-11-18T04:08:59;5.70;85.90
56538;DHT22;42435;53.292;6.000;2023-11-18T04:11:31;5.70;85.90
56538;DHT22;42435;53.292;6.000;2023-11-18T04:14:07;5.70;85.90
56538;DHT22;42435;53.292;6.000;2023-11-18T04:16:34;5.70;85.90
56538;DHT22;42435;53.292;6.000;2023-11-18T04:19:19;5.70;85.90
56538;DHT22;42435;53.292;6.000;2023-11-18T04:21:53;5.70;85.90
56538;DHT22;42435;53.292;6.000;2023-11-18T04:24:25;5.80;85.90
56538;DHT22;42435;53.292;6.000;2023-11-18T04:26:56;5.80;85.90
56538;DHT22;42435;53.292;6.000;2023-11-18T04:29:29;5.80;85.90
56538;DHT22;42435;53.292;6.000;2023-11-18T04:32:02;5.80;85.90
56538;DHT22;42435;53.292;6.000;2023-11-18T04:34:34;5.80;85.90
56538;DHT22;42435;53.292;6.000;2023-11-18T04:37:13;5.80;85.90
56538;DHT22;42435;53.292;6.000;2023-11-18T04:40:08;5.80;86.00
56538;DHT22;42435;53.292;6.000;2023-11-18T04:42:41;5.90;86.00
56538;DHT22;42435;53.292;6.000;2023-11-18T04:45:13;5.90;86.00
56538;DHT22;42435;53.292;6.000;2023-11-18T04:47:43;5.90;86.00
56538;DHT22;42435;53.292;6.000;2023-11-18T04:50:10;5.90;85.90
56538;DHT22;42435;53.292;6.000;2023-11-18T04:52:42;5.90;85.90
56538;DHT22;42435;53.292;6.000;2023-11-18T04:55:08;5.90;85.90
56538;DHT22;42435;53.292;6.000;2023-11-18T04:57:49;5.90;85.90
56538;DHT22;42435;53.292;6.000;2023-11-18T05:00:16;5.90;85.90
56538;DHT22;42435;53.292;6.000;2023-11-18T05:02:45;5.90;85.90
56538;DHT22;42435;53.292;6.000;2023-11-18T05:05:32;5.90;85.90
56538;DHT22;42435;53.292;6.000;2023-11-18T05:07:58;5.90;85.90
56538;DHT22;42435;53.292;6.000;2023-11-18T05:10:47;5.90;85.90
56538;DHT22;42435;53.292;6.000;2023-11-18T05:13:15;5.90;85.80
56538;DHT22;42435;53.292;6.000;2023-11-18T05:15:48;5.90;85.90
56538;DHT22;42435;53.292;6.000;2023-11-18T05:18:25;5.90;85.90
56538;DHT22;42435;53.292;6.000;2023-11-18T05:21:11;5.90;85.90
56538;DHT22;42435;53.292;6.000;2023-11-18T05:23:40;5.90;85.90
56538;DHT22;42435;53.292;6.000;2023-11-18T05:26:08;5.90;85.80
56538;DHT22;42435;53.292;6.000;2023-11-18T05:28:56;5.90;85.80
56538;DHT22;42435;53.292;6.000;2023-11-18T05:31:26;5.90;85.80
56538;DHT22;42435;53.292;6.000;2023-11-18T05:34:10;5.90;85.80
56538;DHT22;42435;53.292;6.000;2023-11-18T05:36:39;5.90;85.70
56538;DHT22;42435;53.292;6.000;2023-11-18T05:39:07;5.80;85.80
56538;DHT22;42435;53.292;6.000;2023-11-18T05:41:46;5.80;85.80
56538;DHT22;42435;53.292;6.000;2023-11-18T05:44:16;5.80;85.80
56538;DHT22;42435;53.292;6.000;2023-11-18T05:46:50;5.80;85.80
56538;DHT22;42435;53.292;6.000;2023-11-18T05:49:22;5.80;85.90
56538;DHT22;42435;53.292;6.000;2023-11-18T05:51:51;5.80;85.90
56538;DHT22;42435;53.292;6.000;2023-11-18T05:54:25;5.80;85.90
56538;DHT22;42435;53.292;6.000;2023-11-18T05:57:01;5.80;86.00
56538;DHT22;42435;53.292;6.000;2023-11-18T05:59:35;5.80;86.00
56538;DHT22;42435;53.292;6.000;2023-11-18T06:02:04;5.80;86.00
56538;DHT22;42435;53.292;6.000;2023-11-18T06:04:38;5.80;85.90
56538;DHT22;42435;53.292;6.000;2023-11-18T06:07:12;5.80;86.00
56538;DHT22;42435;53.292;6.000;2023-11-18T06:09:44;5.90;86.00
56538;DHT22;42435;53.292;6.000;2023-11-18T06:12:15;5.90;86.00
56538;DHT22;42435;53.292;6.000;2023-11-18T06:14:48;5.90;86.00
56538;DHT22;42435;53.292;6.000;2023-11-18T06:17:17;5.90;86.00
56538;DHT22;42435;53.292;6.000;2023-11-18T06:19:44;5.90;86.10
56538;DHT22;42435;53.292;6.000;2023-11-18T06:22:19;5.90;86.10
56538;DHT22;42435;53.292;6.000;2023-11-18T06:24:53;5.90;86.10
56538;DHT22;42435;53.292;6.000;2023-11-18T06:27:23;5.90;86.00
56538;DHT22;42435;53.292;6.000;2023-11-18T06:29:50;5.90;86.10
56538;DHT22;42435;53.292;6.000;2023-11-18T06:32:27;5.80;86.00
56538;DHT22;42435;53.292;6.000;2023-11-18T06:34:59;5.90;86.10
56538;DHT22;42435;53.292;6.000;2023-11-18T06:37:33;5.90;86.00
56538;DHT22;42435;53.292;6.000;2023-11-18T06:40:10;5.90;86.00
56538;DHT22;42435;53.292;6.000;2023-11-18T06:42:44;5.90;86.00
56538;DHT22;42435;53.292;6.000;2023-11-18T06:45:15;5.90;86.00
56538;DHT22;42435;53.292;6.000;2023-11-18T06:47:44;5.90;86.00
56538;DHT22;42435;53.292;6.000;2023-11-18T06:50:21;5.90;86.00
56538;DHT22;42435;53.292;6.000;2023-11-18T06:52:53;5.90;86.00
56538;DHT22;42435;53.292;6.000;2023-11-18T06:55:23;5.90;86.00
56538;DHT22;42435;53.292;6.000;2023-11-18T06:57:54;5.90;86.00
56538;DHT22;42435;53.292;6.000;2023-11-18T07:00:22;5.90;86.00
56538;DHT22;42435;53.292;6.000;2023-11-18T07:02:54;5.90;86.00
56538;DHT22;42435;53.292;6.000;2023-11-18T07:05:22;5.90;86.00
56538;DHT22;42435;53.292;6.000;2023-11-18T07:07:52;5.80;86.00
56538;DHT22;42435;53.292;6.000;2023-11-18T07:10:21;5.90;86.00
56538;DHT22;42435;53.292;6.000;2023-11-18T07:12:51;5.90;86.00
56538;DHT22;42435;53.292;6.000;2023-11-18T07:15:18;5.90;86.00
56538;DHT22;42435;53.292;6.000;2023-11-18T07:17:50;5.90;86.10
56538;DHT22;42435;53.292;6.000;2023-11-18T07:20:17;5.90;86.10
56538;DHT22;42435;53.292;6.000;2023-11-18T07:22:47;5.90;86.10
56538;DHT22;42435;53.292;6.000;2023-11-18T07:25:14;5.90;86.10
56538;DHT22;42435;53.292;6.000;2023-11-18T07:27:49;5.90;86.10
56538;DHT22;42435;53.292;6.000;2023-11-18T07:30:35;5.90;86.10
56538;DHT22;42435;53.292;6.000;2023-11-18T07:33:03;5.90;86.20
56538;DHT22;42435;53.292;6.000;2023-11-18T07:35:32;5.90;86.20
56538;DHT22;42435;53.292;6.000;2023-11-18T07:38:12;5.90;86.20
56538;DHT22;42435;53.292;6.000;2023-11-18T07:40:43;6.00;86.10
56538;DHT22;42435;53.292;6.000;2023-11-18T07:43:12;6.00;86.20
56538;DHT22;42435;53.292;6.000;2023-11-18T07:45:56;6.00;86.20
56538;DHT22;42435;53.292;6.000;2023-11-18T07:48:23;6.00;86.20
56538;DHT22;42435;53.292;6.000;2023-11-18T07:51:01;6.00;86.20
56538;DHT22;42435;53.292;6.000;2023-11-18T07:53:34;6.10;86.30
56538;DHT22;42435;53.292;6.000;2023-11-18T07:56:07;6.10;86.20
56538;DHT22;42435;53.292;6.000;2023-11-18T07:58:44;6.10;86.20
56538;DHT22;42435;53.292;6.000;2023-11-18T08:01:19;6.10;86.20
56538;DHT22;42435;53.292;6.000;2023-11-18T08:03:58;6.10;86.20
56538;DHT22;42435;53.292;6.000;2023-11-18T08:06:35;6.20;86.30
56538;DHT22;42435;53.292;6.000;2023-11-18T08:09:17;6.20;86.20
56538;DHT22;42435;53.292;6.000;2023-11-18T08:11:52;6.20;86.30
56538;DHT22;42435;53.292;6.000;2023-11-18T08:14:21;6.20;86.30
56538;DHT22;42435;53.292;6.000;2023-11-18T08:17:06;6.20;86.30
56538;DHT22;42435;53.292;6.000;2023-11-18T08:19:36;6.30;86.20
56538;DHT22;42435;53.292;6.000;2023-11-18T08:22:03;6.30;86.20
56538;DHT22;42435;53.292;6.000;2023-11-18T08:24:32;6.30;86.20
56538;DHT22;42435;53.292;6.000;2023-11-18T08:27:02;6.40;86.20
56538;DHT22;42435;53.292;6.000;2023-11-18T08:29:33;6.40;86.20
56538;DHT22;42435;53.292;6.000;2023-11-18T08:32:03;6.40;86.20
56538;DHT22;42435;53.292;6.000;2023-11-18T08:34:51;6.40;86.20
56538;DHT22;42435;53.292;6.000;2023-11-18T08:37:20;6.40;86.20
56538;DHT22;42435;53.292;6.000;2023-11-18T08:39:56;6.40;86.20
56538;DHT22;42435;53.292;6.000;2023-11-18T08:42:26;6.50;86.20
56538;DHT22;42435;53.292;6.000;2023-11-18T08:44:55;6.50;86.20
56538;DHT22;42435;53.292;6.000;2023-11-18T08:47:30;6.50;86.20
56538;DHT22;42435;53.292;6.000;2023-11-18T08:50:05;6.50;86.20
56538;DHT22;42435;53.292;6.000;2023-11-18T08:52:42;6.50;86.20
56538;DHT22;42435;53.292;6.000;2023-11-18T08:55:22;6.60;86.20
56538;DHT22;42435;53.292;6.000;2023-11-18T08:57:55;6.60;86.20
56538;DHT22;42435;53.292;6.000;2023-11-18T09:00:44;6.60;86.20
56538;DHT22;42435;53.292;6.000;2023-11-18T09:03:20;6.70;86.20
56538;DHT22;42435;53.292;6.000;2023-11-18T09:06:16;6.70;86.10
56538;DHT22;42435;53.292;6.000;2023-11-18T09:09:09;6.70;86.10
56538;DHT22;42435;53.292;6.000;2023-11-18T09:11:42;6.70;86.10
56538;DHT22;42435;53.292;6.000;2023-11-18T09:14:08;6.70;86.20
56538;DHT22;42435;53.292;6.000;2023-11-18T09:16:34;6.80;86.20
56538;DHT22;42435;53.292;6.000;2023-11-18T09:19:05;6.80;86.20
56538;DHT22;42435;53.292;6.000;2023-11-18T09:21:37;6.90;86.10
56538;DHT22;42435;53.292;6.000;2023-11-18T09:24:09;6.90;86.20
56538;DHT22;42435;53.292;6.000;2023-11-18T09:26:42;6.90;86.10
56538;DHT22;42435;53.292;6.000;2023-11-18T09:29:13;6.90;86.10
56538;DHT22;42435;53.292;6.000;2023-11-18T09:31:55;6.90;86.00
56538;DHT22;42435;53.292;6.000;2023-11-18T09:34:26;6.90;86.10
56538;DHT22;42435;53.292;6.000;2023-11-18T09:37:10;7.00;86.00
56538;DHT22;42435;53.292;6.000;2023-11-18T09:39:39;7.00;86.00
56538;DHT22;42435;53.292;6.000;2023-11-18T09:42:12;7.00;86.00
56538;DHT22;42435;53.292;6.000;2023-11-18T09:44:39;7.10;86.00
56538;DHT22;42435;53.292;6.000;2023-11-18T09:47:08;7.10;86.00
56538;DHT22;42435;53.292;6.000;2023-11-18T09:49:41;7.10;85.90
56538;DHT22;42435;53.292;6.000;2023-11-18T09:52:15;7.20;85.90
56538;DHT22;42435;53.292;6.000;2023-11-18T10:00:01;7.20;85.80
56538;DHT22;42435;53.292;6.000;2023-11-18T10:02:48;7.20;85.80
56538;DHT22;42435;53.292;6.000;2023-11-18T10:05:16;7.20;85.70
56538;DHT22;42435;53.292;6.000;2023-11-18T10:07:46;7.20;85.60
56538;DHT22;42435;53.292;6.000;2023-11-18T10:10:18;7.30;85.60
56538;DHT22;42435;53.292;6.000;2023-11-18T10:12:50;7.20;85.60
56538;DHT22;42435;53.292;6.000;2023-11-18T10:15:24;7.20;85.60
56538;DHT22;42435;53.292;6.000;2023-11-18T10:17:51;7.20;85.50
56538;DHT22;42435;53.292;6.000;2023-11-18T10:20:22;7.20;85.50
56538;DHT22;42435;53.292;6.000;2023-11-18T10:23:07;7.20;85.50
56538;DHT22;42435;53.292;6.000;2023-11-18T10:25:51;7.20;85.50
56538;DHT22;42435;53.292;6.000;2023-11-18T10:28:32;7.20;85.50
56538;DHT22;42435;53.292;6.000;2023-11-18T10:31:05;7.30;85.60
56538;DHT22;42435;53.292;6.000;2023-11-18T10:33:34;7.30;85.50
56538;DHT22;42435;53.292;6.000;2023-11-18T10:36:02;7.30;85.50
56538;DHT22;42435;53.292;6.000;2023-11-18T10:38:33;7.30;85.50
56538;DHT22;42435;53.292;6.000;2023-11-18T10:41:09;7.30;85.40
56538;DHT22;42435;53.292;6.000;2023-11-18T10:43:35;7.30;85.40
56538;DHT22;42435;53.292;6.000;2023-11-18T10:46:09;7.40;85.40
56538;DHT22;42435;53.292;6.000;2023-11-18T10:48:43;7.30;85.40
56538;DHT22;42435;53.292;6.000;2023-11-18T10:51:14;7.40;85.30
56538;DHT22;42435;53.292;6.000;2023-11-18T10:53:43;7.40;85.30
56538;DHT22;42435;53.292;6.000;2023-11-18T10:56:22;7.40;85.30
56538;DHT22;42435;53.292;6.000;2023-11-18T10:58:58;7.40;85.20
56538;DHT22;42435;53.292;6.000;2023-11-18T11:01:35;7.50;85.20
56538;DHT22;42435;53.292;6.000;2023-11-18T11:04:08;7.40;85.10
56538;DHT22;42435;53.292;6.000;2023-11-18T11:06:41;7.40;85.10
56538;DHT22;42435;53.292;6.000;2023-11-18T11:09:10;7.40;85.10
56538;DHT22;42435;53.292;6.000;2023-11-18T11:11:52;7.40;85.00
56538;DHT22;42435;53.292;6.000;2023-11-18T11:14:21;7.40;85.00
56538;DHT22;42435;53.292;6.000;2023-11-18T11:16:54;7.40;84.80
56538;DHT22;42435;53.292;6.000;2023-11-18T11:19:25;7.40;84.80
56538;DHT22;42435;53.292;6.000;2023-11-18T11:22:00;7.40;84.80
56538;DHT22;42435;53.292;6.000;2023-11-18T11:27:25;7.30;84.80
56538;DHT22;42435;53.292;6.000;2023-11-18T11:30:03;7.30;84.80
56538;DHT22;42435;53.292;6.000;2023-11-18T11:33:08;7.40;84.80
56538;DHT22;42435;53.292;6.000;2023-11-18T11:35:40;7.30;84.80
56538;DHT22;42435;53.292;6.000;2023-11-18T11:38:12;7.30;84.70
56538;DHT22;42435;53.292;6.000;2023-11-18T11:40:41;7.30;84.70
56538;DHT22;42435;53.292;6.000;2023-11-18T11:43:09;7.30;84.70
56538;DHT22;42435;53.292;6.000;2023-11-18T11:45:36;7.30;84.80
56538;DHT22;42435;53.292;6.000;2023-11-18T11:48:06;7.30;84.80
56538;DHT22;42435;53.292;6.000;2023-11-18T11:54:11;7.30;84.80
56538;DHT22;42435;53.292;6.000;2023-11-18T11:56:46;7.20;84.90
56538;DHT22;42435;53.292;6.000;2023-11-18T11:59:16;7.30;84.90
56538;DHT22;42435;53.292;6.000;2023-11-18T12:01:41;7.20;84.80
56538;DHT22;42435;53.292;6.000;2023-11-18T12:04:14;7.30;84.90
56538;DHT22;42435;53.292;6.000;2023-11-18T12:06:47;7.20;84.90
56538;DHT22;42435;53.292;6.000;2023-11-18T12:09:14;7.20;85.10
56538;DHT22;42435;53.292;6.000;2023-11-18T12:11:48;7.20;85.00
56538;DHT22;42435;53.292;6.000;2023-11-18T12:14:16;7.30;85.10
56538;DHT22;42435;53.292;6.000;2023-11-18T12:17:08;7.20;85.10
56538;DHT22;42435;53.292;6.000;2023-11-18T12:19:38;7.30;85.20
56538;DHT22;42435;53.292;6.000;2023-11-18T12:22:20;7.30;85.10
56538;DHT22;42435;53.292;6.000;2023-11-18T12:33:05;7.30;85.20
56538;DHT22;42435;53.292;6.000;2023-11-18T12:38:50;7.30;85.20
56538;DHT22;42435;53.292;6.000;2023-11-18T12:41:34;7.30;85.10
56538;DHT22;42435;53.292;6.000;2023-11-18T12:44:29;7.30;85.10
56538;DHT22;42435;53.292;6.000;2023-11-18T12:47:03;7.20;85.10
56538;DHT22;42435;53.292;6.000;2023-11-18T12:49:40;7.20;85.10
56538;DHT22;42435;53.292;6.000;2023-11-18T12:52:11;7.20;85.10
56538;DHT22;42435;53.292;6.000;2023-11-18T12:54:38;7.20;85.10
56538;DHT22;42435;53.292;6.000;2023-11-18T12:57:12;7.20;85.10
56538;DHT22;42435;53.292;6.000;2023-11-18T12:59:41;7.20;85.20
56538;DHT22;42435;53.292;6.000;2023-11-18T13:02:11;7.20;85.30
56538;DHT22;42435;53.292;6.000;2023-11-18T13:04:43;7.20;85.30
56538;DHT22;42435;53.292;6.000;2023-11-18T13:07:13;7.20;85.30
56538;DHT22;42435;53.292;6.000;2023-11-18T13:09:39;7.20;85.30
56538;DHT22;42435;53.292;6.000;2023-11-18T13:12:08;7.20;85.40
56538;DHT22;42435;53.292;6.000;2023-11-18T13:14:35;7.20;85.40
56538;DHT22;42435;53.292;6.000;2023-11-18T13:17:08;7.20;85.40
56538;DHT22;42435;53.292;6.000;2023-11-18T13:19:34;7.20;85.50
56538;DHT22;42435;53.292;6.000;2023-11-18T13:22:03;7.20;85.50
56538;DHT22;42435;53.292;6.000;2023-11-18T13:24:30;7.20;85.60
56538;DHT22;42435;53.292;6.000;2023-11-18T13:26:57;7.20;85.70
56538;DHT22;42435;53.292;6.000;2023-11-18T13:29:27;7.20;85.70
56538;DHT22;42435;53.292;6.000;2023-11-18T13:31:53;7.20;85.70
56538;DHT22;42435;53.292;6.000;2023-11-18T13:34:19;7.20;85.70
56538;DHT22;42435;53.292;6.000;2023-11-18T13:36:49;7.20;85.80
56538;DHT22;42435;53.292;6.000;2023-11-18T13:39:18;7.20;85.80
56538;DHT22;42435;53.292;6.000;2023-11-18T13:41:48;7.20;85.80
56538;DHT22;42435;53.292;6.000;2023-11-18T13:44:35;7.20;85.80
56538;DHT22;42435;53.292;6.000;2023-11-18T13:47:05;7.30;85.90
56538;DHT22;42435;53.292;6.000;2023-11-18T13:49:40;7.20;85.80
56538;DHT22;42435;53.292;6.000;2023-11-18T13:52:07;7.20;85.80
56538;DHT22;42435;53.292;6.000;2023-11-18T13:54:37;7.20;85.80
56538;DHT22;42435;53.292;6.000;2023-11-18T13:57:04;7.20;85.80
56538;DHT22;42435;53.292;6.000;2023-11-18T13:59:31;7.20;85.80
56538;DHT22;42435;53.292;6.000;2023-11-18T14:01:58;7.20;85.80
56538;DHT22;42435;53.292;6.000;2023-11-18T14:04:27;7.20;85.90
56538;DHT22;42435;53.292;6.000;2023-11-18T14:06:56;7.20;85.90
56538;DHT22;42435;53.292;6.000;2023-11-18T14:09:24;7.20;85.90
56538;DHT22;42435;53.292;6.000;2023-11-18T14:11:56;7.20;86.00
56538;DHT22;42435;53.292;6.000;2023-11-18T14:14:22;7.20;86.00
56538;DHT22;42435;53.292;6.000;2023-11-18T14:16:48;7.10;86.10
56538;DHT22;42435;53.292;6.000;2023-11-18T14:19:15;7.10;86.10
56538;DHT22;42435;53.292;6.000;2023-11-18T14:21:41;7.20;86.10
56538;DHT22;42435;53.292;6.000;2023-11-18T14:24:11;7.10;86.20
56538;DHT22;42435;53.292;6.000;2023-11-18T14:26:37;7.10;86.20
56538;DHT22;42435;53.292;6.000;2023-11-18T14:29:08;7.10;86.20
56538;DHT22;42435;53.292;6.000;2023-11-18T14:31:33;7.10;86.20
56538;DHT22;42435;53.292;6.000;2023-11-18T14:34:00;7.10;86.20
56538;DHT22;42435;53.292;6.000;2023-11-18T14:36:26;7.10;86.30
56538;DHT22;42435;53.292;6.000;2023-11-18T14:38:52;7.10;86.30
56538;DHT22;42435;53.292;6.000;2023-11-18T14:41:21;7.10;86.40
56538;DHT22;42435;53.292;6.000;2023-11-18T14:43:51;7.10;86.40
56538;DHT22;42435;53.292;6.000;2023-11-18T14:46:16;7.20;86.50
56538;DHT22;42435;53.292;6.000;2023-11-18T14:48:46;7.20;86.50
56538;DHT22;42435;53.292;6.000;2023-11-18T14:51:12;7.20;86.50
56538;DHT22;42435;53.292;6.000;2023-11-18T14:53:38;7.20;86.60
56538;DHT22;42435;53.292;6.000;2023-11-18T14:56:04;7.20;86.60
56538;DHT22;42435;53.292;6.000;2023-11-18T14:58:34;7.20;86.60
56538;DHT22;42435;53.292;6.000;2023-11-18T15:01:04;7.20;86.60
56538;DHT22;42435;53.292;6.000;2023-11-18T15:03:33;7.20;86.50
56538;DHT22;42435;53.292;6.000;2023-11-18T15:05:58;7.20;86.60
56538;DHT22;42435;53.292;6.000;2023-11-18T15:08:27;7.20;86.60
56538;DHT22;42435;53.292;6.000;2023-11-18T15:10:53;7.20;86.70
56538;DHT22;42435;53.292;6.000;2023-11-18T15:13:18;7.20;86.70
56538;DHT22;42435;53.292;6.000;2023-11-18T15:15:44;7.20;86.70
56538;DHT22;42435;53.292;6.000;2023-11-18T15:18:13;7.30;86.80
56538;DHT22;42435;53.292;6.000;2023-11-18T15:20:40;7.20;86.70
56538;DHT22;42435;53.292;6.000;2023-11-18T15:23:09;7.20;86.80
56538;DHT22;42435;53.292;6.000;2023-11-18T15:25:34;7.20;86.80
56538;DHT22;42435;53.292;6.000;2023-11-18T15:28:03;7.30;86.80
56538;DHT22;42435;53.292;6.000;2023-11-18T15:30:29;7.30;86.80
56538;DHT22;42435;53.292;6.000;2023-11-18T15:32:55;7.30;86.80
56538;DHT22;42435;53.292;6.000;2023-11-18T15:35:22;7.30;86.80
56538;DHT22;42435;53.292;6.000;2023-11-18T15:37:48;7.30;86.90
56538;DHT22;42435;53.292;6.000;2023-11-18T15:40:16;7.30;86.90
56538;DHT22;42435;53.292;6.000;2023-11-18T15:42:47;7.30;86.90
56538;DHT22;42435;53.292;6.000;2023-11-18T15:45:18;7.30;86.90
56538;DHT22;42435;53.292;6.000;2023-11-18T15:47:44;7.30;86.90
56538;DHT22;42435;53.292;6.000;2023-11-18T15:50:13;7.30;86.90
56538;DHT22;42435;53.292;6.000;2023-11-18T15:52:45;7.30;87.00
56538;DHT22;42435;53.292;6.000;2023-11-18T15:55:11;7.30;87.00
56538;DHT22;42435;53.292;6.000;2023-11-18T15:57:48;7.30;87.00
56538;DHT22;42435;53.292;6.000;2023-11-18T16:00:19;7.30;87.00
56538;DHT22;42435;53.292;6.000;2023-11-18T16:02:47;7.30;87.00
56538;DHT22;42435;53.292;6.000;2023-11-18T16:05:14;7.30;87.00
56538;DHT22;42435;53.292;6.000;2023-11-18T16:07:44;7.30;87.10
56538;DHT22;42435;53.292;6.000;2023-11-18T16:10:14;7.30;87.10
56538;DHT22;42435;53.292;6.000;2023-11-18T16:12:47;7.30;87.10
56538;DHT22;42435;53.292;6.000;2023-11-18T16:15:14;7.40;87.10
56538;DHT22;42435;53.292;6.000;2023-11-18T16:17:40;7.30;87.10
56538;DHT22;42435;53.292;6.000;2023-11-18T16:20:07;7.40;87.10
56538;DHT22;42435;53.292;6.000;2023-11-18T16:22:34;7.30;87.20
56538;DHT22;42435;53.292;6.000;2023-11-18T16:25:00;7.40;87.10
56538;DHT22;42435;53.292;6.000;2023-11-18T16:27:25;7.40;87.20
56538;DHT22;42435;53.292;6.000;2023-11-18T16:29:52;7.40;87.20
56538;DHT22;42435;53.292;6.000;2023-11-18T16:32:18;7.40;87.30
56538;DHT22;42435;53.292;6.000;2023-11-18T16:34:43;7.40;87.30
56538;DHT22;42435;53.292;6.000;2023-11-18T16:37:12;7.40;87.30
56538;DHT22;42435;53.292;6.000;2023-11-18T16:39:42;7.50;87.30
56538;DHT22;42435;53.292;6.000;2023-11-18T16:42:08;7.50;87.30
56538;DHT22;42435;53.292;6.000;2023-11-18T16:44:35;7.50;87.30
56538;DHT22;42435;53.292;6.000;2023-11-18T16:47:01;7.50;87.30
56538;DHT22;42435;53.292;6.000;2023-11-18T16:49:27;7.50;87.30